Time;durP1;ratioP1;P1;durP2;ratioP2;P2;SDS_P1;SDS_P2;PMS_P1;PMS_P2;Temp;Humidity;BMP_temperature;BMP_pressure;BME280_temperature;BME280_humidity;BME280_pressure;Samples;Min_cycle;Max_cycle;Signal;HPM_P1;HPM_P2
2022/02/19 00:02:00;;;;;;;;;;;;;;;-0.58;79.33;97517.75;5034055;28;19935;-63
2022/02/19 00:04:26;;;;;;;;;;;;;;;-0.57;79.00;97527.13;5033873;28;19921;-64
2022/02/19 00:06:51;;;;;;;;;;;;;;;-0.49;79.40;97529.47;5033969;28;19967;-63
2022/02/19 00:09:17;;;;;;;;;;;;;;;-0.41;78.91;97539.63;5035650;28;19921;-62
2022/02/19 00:11:42;;;;;;;;;;;;;;;-0.29;78.57;97540.53;5035051;28;19932;-64
2022/02/19 00:14:08;;;;;;;;;;;;;;;-0.19;78.36;97544.47;5035372;28;19921;-63
2022/02/19 00:16:36;;;;;;;;;;;;;;;-0.07;77.75;97547.97;5050112;28;19932;-63
2022/02/19 00:19:02;;;;;;;;;;;;;;;0.01;77.45;97550.28;5054932;28;19977;-64
2022/02/19 00:21:28;;;;;;;;;;;;;;;0.13;77.08;97545.19;5053692;28;19925;-63
2022/02/19 00:23:54;;;;;;;;;;;;;;;0.23;76.47;97540.25;5051158;28;19921;-63
2022/02/19 00:26:19;;;;;;;;;;;;;;;0.29;76.35;97542.00;5035001;28;20283;-63
2022/02/19 00:28:45;;;;;;;;;;;;;;;0.39;76.03;97538.91;5033746;28;20364;-63
2022/02/19 00:31:10;;;;;;;;;;;;;;;0.42;75.69;97541.88;5017357;28;19917;-63
2022/02/19 00:33:36;;;;;;;;;;;;;;;0.41;75.71;97540.28;5033637;28;20011;-64
2022/02/19 00:36:02;;;;;;;;;;;;;;;0.41;76.11;97534.25;5033622;28;20286;-63
2022/02/19 00:38:27;;;;;;;;;;;;;;;0.51;75.76;97541.59;5033403;28;19960;-62
2022/02/19 00:40:53;;;;;;;;;;;;;;;0.53;75.34;97550.78;5000872;28;19921;-63
2022/02/19 00:43:18;;;;;;;;;;;;;;;0.58;75.46;97537.88;5034675;28;19924;-63
2022/02/19 00:45:44;;;;;;;;;;;;;;;0.66;75.09;97544.59;5016791;28;19917;-63
2022/02/19 00:48:10;;;;;;;;;;;;;;;0.66;74.78;97539.41;5034622;28;19972;-64
2022/02/19 00:50:35;;;;;;;;;;;;;;;0.73;75.06;97531.47;5034814;28;19921;-60
2022/02/19 00:53:01;;;;;;;;;;;;;;;0.85;74.10;97527.13;5034017;28;19947;-61
2022/02/19 00:55:27;;;;;;;;;;;;;;;0.81;74.94;97528.59;5016742;28;19921;-64
2022/02/19 00:57:52;;;;;;;;;;;;;;;0.81;73.97;97525.97;5033384;28;19925;-64
2022/02/19 01:00:18;;;;;;;;;;;;;;;0.89;74.35;97513.41;5033205;28;20310;-62
2022/02/19 01:03:09;;;;;;;;;;;;;;;0.76;74.57;97503.16;5052688;28;19924;-62
2022/02/19 01:05:35;;;;;;;;;;;;;;;0.82;74.19;97504.88;5053111;28;19943;-62
2022/02/19 01:08:02;;;;;;;;;;;;;;;0.82;74.28;97510.09;5052606;28;19971;-64
2022/02/19 01:10:30;;;;;;;;;;;;;;;0.79;74.66;97505.31;5052984;28;20344;-63
2022/02/19 01:12:55;;;;;;;;;;;;;;;0.86;74.54;97510.47;5046041;28;19970;-64
2022/02/19 01:15:21;;;;;;;;;;;;;;;0.88;74.37;97509.22;5032883;28;19921;-61
2022/02/19 01:17:46;;;;;;;;;;;;;;;0.95;74.61;97503.91;5032807;28;19925;-62
2022/02/19 01:20:12;;;;;;;;;;;;;;;0.97;74.46;97503.69;5032809;28;19991;-62
2022/02/19 01:22:46;;;;;;;;;;;;;;;1.02;74.30;97503.81;5032701;28;19932;-62
2022/02/19 01:25:12;;;;;;;;;;;;;;;1.06;73.53;97503.16;5034051;28;19963;-61
2022/02/19 01:27:43;;;;;;;;;;;;;;;1.09;73.15;97492.28;5016993;28;20355;-62
2022/02/19 01:30:09;;;;;;;;;;;;;;;1.01;74.08;97487.38;5032510;28;19959;-63
2022/02/19 01:32:34;;;;;;;;;;;;;;;1.02;74.03;97491.56;5021682;28;19929;-65
2022/02/19 01:35:01;;;;;;;;;;;;;;;1.06;73.67;97487.50;5052460;28;19921;-63
2022/02/19 01:37:28;;;;;;;;;;;;;;;1.08;73.73;97488.06;5053610;28;19925;-64
2022/02/19 01:39:53;;;;;;;;;;;;;;;1.07;73.72;97481.25;5052316;28;19974;-62
2022/02/19 01:42:19;;;;;;;;;;;;;;;1.12;74.04;97488.44;5053018;28;19929;-62
2022/02/19 01:44:45;;;;;;;;;;;;;;;1.08;74.12;97485.47;5053197;28;19917;-61
2022/02/19 01:47:13;;;;;;;;;;;;;;;1.15;74.12;97488.00;5052300;28;20027;-63
2022/02/19 01:49:39;;;;;;;;;;;;;;;1.20;73.32;97498.53;5051888;28;20356;-63
2022/02/19 01:52:06;;;;;;;;;;;;;;;1.22;73.33;97501.72;5051646;28;20019;-63
2022/02/19 01:54:32;;;;;;;;;;;;;;;1.20;73.76;97497.75;5049858;28;19925;-63
2022/02/19 01:57:06;;;;;;;;;;;;;;;1.24;73.71;97502.31;5052285;28;20138;-64
2022/02/19 01:59:40;;;;;;;;;;;;;;;1.30;73.13;97503.22;5051568;28;19931;-63
2022/02/19 02:02:42;;;;;;;;;;;;;;;1.35;73.34;97498.94;4999374;28;20043;-61
2022/02/19 02:05:39;;;;;;;;;;;;;;;1.36;73.02;97497.13;4939037;28;19922;-62
2022/02/19 02:08:07;;;;;;;;;;;;;;;1.31;73.39;97500.38;4971966;28;20431;-62
2022/02/19 02:10:33;;;;;;;;;;;;;;;1.29;72.87;97493.78;4971864;28;19922;-62
2022/02/19 02:12:59;;;;;;;;;;;;;;;1.35;73.45;97492.91;4988646;28;19932;-62
2022/02/19 02:15:26;;;;;;;;;;;;;;;1.41;73.11;97502.44;4970426;28;19921;-62
2022/02/19 02:18:09;;;;;;;;;;;;;;;1.38;73.32;97494.25;5010592;28;19980;-62
2022/02/19 02:20:35;;;;;;;;;;;;;;;1.33;73.72;97493.13;5009179;28;20023;-62
2022/02/19 02:23:02;;;;;;;;;;;;;;;1.37;73.36;97498.69;5010529;28;20330;-63
2022/02/19 02:25:31;;;;;;;;;;;;;;;1.40;73.01;97495.63;4994104;28;19928;-63
2022/02/19 02:27:59;;;;;;;;;;;;;;;1.40;73.50;97494.84;4994211;28;19925;-64
2022/02/19 02:30:25;;;;;;;;;;;;;;;1.35;73.18;97491.09;4993871;28;19932;-63
2022/02/19 02:33:05;;;;;;;;;;;;;;;1.38;73.71;97492.44;5018930;28;20420;-62
2022/02/19 02:35:31;;;;;;;;;;;;;;;1.44;72.94;97491.56;5032828;28;19986;-63
2022/02/19 02:37:56;;;;;;;;;;;;;;;1.39;73.41;97478.38;5050925;28;20416;-62
2022/02/19 02:40:23;;;;;;;;;;;;;;;1.33;73.91;97481.91;5050926;28;20386;-63
2022/02/19 02:42:48;;;;;;;;;;;;;;;1.36;73.82;97469.19;5034408;28;19924;-64
2022/02/19 02:45:14;;;;;;;;;;;;;;;1.35;73.91;97470.22;5052131;28;19956;-63
2022/02/19 02:47:43;;;;;;;;;;;;;;;1.38;73.95;97479.38;5034217;28;20420;-62
2022/02/19 02:50:10;;;;;;;;;;;;;;;1.41;73.69;97485.97;5050911;28;19925;-62
2022/02/19 02:52:37;;;;;;;;;;;;;;;1.38;74.06;97479.38;5050726;28;19931;-63
2022/02/19 02:55:03;;;;;;;;;;;;;;;1.40;73.33;97485.19;5039955;28;19967;-63
2022/02/19 02:57:28;;;;;;;;;;;;;;;1.47;73.20;97482.47;5031978;28;19925;-62
2022/02/19 02:59:54;;;;;;;;;;;;;;;1.41;73.43;97478.16;5013929;28;19927;-63
2022/02/19 03:02:20;;;;;;;;;;;;;;;1.38;73.46;97483.81;5031201;28;19929;-61
2022/02/19 03:04:46;;;;;;;;;;;;;;;1.40;74.05;97487.81;5030744;28;19943;-62
2022/02/19 03:07:12;;;;;;;;;;;;;;;1.37;73.53;97493.47;5031046;28;19924;-63
2022/02/19 03:09:38;;;;;;;;;;;;;;;1.43;73.66;97484.75;5030761;28;19927;-62
2022/02/19 03:12:05;;;;;;;;;;;;;;;1.53;73.08;97492.84;5030617;28;20023;-62
2022/02/19 03:14:32;;;;;;;;;;;;;;;1.55;72.93;97485.53;5030666;28;19947;-62
2022/02/19 03:16:58;;;;;;;;;;;;;;;1.54;72.89;97473.53;5034075;28;20410;-61
2022/02/19 03:19:23;;;;;;;;;;;;;;;1.52;73.43;97483.38;5050425;28;19928;-60
2022/02/19 03:21:50;;;;;;;;;;;;;;;1.36;74.08;97479.63;5033878;28;19928;-62
2022/02/19 03:24:18;;;;;;;;;;;;;;;1.38;73.73;97482.00;5050462;28;19921;-62
2022/02/19 03:26:45;;;;;;;;;;;;;;;1.42;74.01;97483.16;5049956;28;19931;-61
2022/02/19 03:29:15;;;;;;;;;;;;;;;1.30;74.08;97480.53;5050465;28;19920;-62
2022/02/19 03:31:45;;;;;;;;;;;;;;;1.31;74.42;97476.88;5051558;28;19960;-62
2022/02/19 03:34:23;;;;;;;;;;;;;;;1.30;74.69;97470.09;5034705;28;19921;-62
2022/02/19 03:36:48;;;;;;;;;;;;;;;1.43;74.33;97473.50;4997513;28;19924;-63
2022/02/19 03:39:14;;;;;;;;;;;;;;;1.45;73.97;97474.09;5030275;28;19920;-61
2022/02/19 03:41:40;;;;;;;;;;;;;;;1.53;73.25;97471.94;5030263;28;19929;-62
2022/02/19 03:44:07;;;;;;;;;;;;;;;1.63;72.93;97471.38;5030174;28;20492;-61
2022/02/19 03:46:37;;;;;;;;;;;;;;;1.65;73.14;97479.78;5030412;28;19979;-63
2022/02/19 03:49:19;;;;;;;;;;;;;;;1.67;72.93;97469.09;5030298;28;19968;-64
2022/02/19 03:51:46;;;;;;;;;;;;;;;1.63;73.28;97481.03;5030060;28;19971;-62
2022/02/19 03:54:12;;;;;;;;;;;;;;;1.66;73.25;97470.91;5030149;28;19925;-62
2022/02/19 03:56:39;;;;;;;;;;;;;;;1.75;73.16;97469.56;5030123;28;20378;-61
2022/02/19 03:59:12;;;;;;;;;;;;;;;1.78;72.62;97473.53;5030280;28;19948;-61
2022/02/19 04:01:38;;;;;;;;;;;;;;;1.79;73.24;97465.47;5030241;28;20016;-63
2022/02/19 04:04:11;;;;;;;;;;;;;;;1.73;72.71;97462.97;5030337;28;19990;-62
2022/02/19 04:06:36;;;;;;;;;;;;;;;1.71;73.05;97465.03;5030441;28;19925;-62
2022/02/19 04:09:03;;;;;;;;;;;;;;;1.69;72.86;97461.84;5013773;28;19921;-61
2022/02/19 04:11:29;;;;;;;;;;;;;;;1.71;73.55;97463.19;5030103;28;19971;-63
2022/02/19 04:13:55;;;;;;;;;;;;;;;1.63;73.26;97463.53;5029991;28;19921;-62
2022/02/19 04:16:26;;;;;;;;;;;;;;;1.63;73.65;97455.69;5030073;28;20067;-61
2022/02/19 04:18:54;;;;;;;;;;;;;;;1.73;73.01;97465.56;5030384;28;20027;-62
2022/02/19 04:21:21;;;;;;;;;;;;;;;1.70;73.36;97464.22;5030223;28;19932;-63
2022/02/19 04:23:46;;;;;;;;;;;;;;;1.69;73.32;97454.00;5013584;28;19924;-64
2022/02/19 04:26:12;;;;;;;;;;;;;;;1.65;73.54;97456.28;5015723;28;19928;-61
2022/02/19 04:28:56;;;;;;;;;;;;;;;1.69;72.98;97449.56;5028132;28;19974;-61
2022/02/19 04:31:28;;;;;;;;;;;;;;;1.72;73.40;97451.72;5049665;28;20433;-60
2022/02/19 04:34:09;;;;;;;;;;;;;;;1.76;72.98;97439.00;5026692;28;19967;-65
2022/02/19 04:36:37;;;;;;;;;;;;;;;1.71;72.99;97438.91;5010143;28;19979;-62
2022/02/19 04:39:06;;;;;;;;;;;;;;;1.71;73.10;97436.28;5025423;28;19927;-61
2022/02/19 04:41:32;;;;;;;;;;;;;;;1.72;73.58;97438.66;5049785;28;20312;-62
2022/02/19 04:43:58;;;;;;;;;;;;;;;1.81;73.03;97432.06;5051500;28;19926;-65
2022/02/19 04:46:24;;;;;;;;;;;;;;;1.88;73.00;97439.78;5036646;28;19921;-62
2022/02/19 04:48:54;;;;;;;;;;;;;;;1.86;72.72;97436.63;5033865;28;19924;-61
2022/02/19 04:51:20;;;;;;;;;;;;;;;1.90;72.24;97431.72;5024076;28;19952;-61
2022/02/19 04:53:46;;;;;;;;;;;;;;;1.80;73.23;97424.47;5033622;28;19925;-63
2022/02/19 04:56:12;;;;;;;;;;;;;;;1.79;73.38;97421.06;5033380;28;20397;-62
2022/02/19 04:58:38;;;;;;;;;;;;;;;1.76;73.45;97418.09;5033187;28;20031;-61
2022/02/19 05:01:03;;;;;;;;;;;;;;;1.82;72.90;97419.78;5033242;28;20019;-61
2022/02/19 05:03:32;;;;;;;;;;;;;;;1.71;73.10;97415.41;5034203;28;20062;-62
2022/02/19 05:06:16;;;;;;;;;;;;;;;1.60;73.85;97422.22;5033301;28;19974;-61
2022/02/19 05:08:54;;;;;;;;;;;;;;;1.69;73.44;97422.66;5032954;28;19928;-59
2022/02/19 05:11:23;;;;;;;;;;;;;;;1.79;72.90;97433.31;5033752;28;19921;-62
2022/02/19 05:13:51;;;;;;;;;;;;;;;1.76;73.14;97425.94;5041269;28;20394;-62
2022/02/19 05:16:18;;;;;;;;;;;;;;;1.86;73.27;97431.41;5019855;28;19920;-62
2022/02/19 05:18:56;;;;;;;;;;;;;;;1.98;73.01;97420.94;5047101;28;19931;-62
2022/02/19 05:21:24;;;;;;;;;;;;;;;1.96;73.11;97422.97;5032867;28;19921;-60
2022/02/19 05:23:53;;;;;;;;;;;;;;;2.03;72.58;97428.88;5016843;28;19925;-60
2022/02/19 05:26:25;;;;;;;;;;;;;;;2.03;72.68;97421.03;5032658;28;20012;-60
2022/02/19 05:28:51;;;;;;;;;;;;;;;2.01;72.71;97425.69;5032725;28;20016;-60
2022/02/19 05:31:18;;;;;;;;;;;;;;;2.04;72.28;97425.22;5016549;28;19964;-61
2022/02/19 05:34:15;;;;;;;;;;;;;;;2.05;72.12;97435.44;5001280;28;19932;-61
2022/02/19 05:36:47;;;;;;;;;;;;;;;2.16;72.18;97428.59;5035880;28;19959;-61
2022/02/19 05:39:12;;;;;;;;;;;;;;;2.17;72.15;97430.19;5015693;28;20002;-61
2022/02/19 05:41:39;;;;;;;;;;;;;;;2.25;71.71;97435.06;5033425;28;20394;-61
2022/02/19 05:44:12;;;;;;;;;;;;;;;2.19;72.24;97433.38;5040125;28;19920;-62
2022/02/19 05:46:38;;;;;;;;;;;;;;;2.28;71.67;97410.28;5052216;28;20345;-62
2022/02/19 05:49:05;;;;;;;;;;;;;;;2.33;71.31;97414.81;5051644;28;19920;-61
2022/02/19 05:52:00;;;;;;;;;;;;;;;2.23;71.44;97418.00;5014206;28;19929;-60
2022/02/19 05:54:34;;;;;;;;;;;;;;;2.21;71.85;97407.00;5020250;28;20383;-63
2022/02/19 05:57:12;;;;;;;;;;;;;;;2.17;71.12;97406.66;4995381;28;19936;-61
2022/02/19 05:59:37;;;;;;;;;;;;;;;2.27;70.81;97417.34;5024441;28;19921;-60
2022/02/19 06:02:05;;;;;;;;;;;;;;;2.35;70.77;97410.13;5033737;28;19925;-60
2022/02/19 06:04:30;;;;;;;;;;;;;;;2.36;70.65;97414.34;5031140;28;20422;-62
2022/02/19 06:06:56;;;;;;;;;;;;;;;2.37;70.71;97414.09;5031998;28;20504;-63
2022/02/19 06:09:25;;;;;;;;;;;;;;;2.52;70.16;97429.28;5031039;28;20015;-60
2022/02/19 06:11:52;;;;;;;;;;;;;;;2.57;69.83;97424.16;5031509;28;20357;-60
2022/02/19 06:14:36;;;;;;;;;;;;;;;2.58;69.34;97419.72;5032685;28;20382;-61
2022/02/19 06:17:05;;;;;;;;;;;;;;;2.52;69.61;97425.88;5036848;28;19960;-62
2022/02/19 06:19:31;;;;;;;;;;;;;;;2.56;69.57;97424.38;5032803;28;19989;-61
2022/02/19 06:21:58;;;;;;;;;;;;;;;2.58;68.94;97424.94;5044356;28;20028;-62
2022/02/19 06:24:31;;;;;;;;;;;;;;;2.53;68.38;97423.06;5025134;28;19928;-61
2022/02/19 06:26:57;;;;;;;;;;;;;;;2.45;69.04;97433.88;5031445;28;20382;-61
2022/02/19 06:29:43;;;;;;;;;;;;;;;2.39;69.03;97434.81;5032303;28;19928;-62
2022/02/19 06:32:11;;;;;;;;;;;;;;;2.48;69.04;97425.56;5016082;28;20297;-62
2022/02/19 06:34:41;;;;;;;;;;;;;;;2.59;68.59;97423.91;5032047;28;19921;-61
2022/02/19 06:37:12;;;;;;;;;;;;;;;2.57;68.85;97415.53;5042575;28;20336;-61
2022/02/19 06:39:38;;;;;;;;;;;;;;;2.69;68.37;97418.88;5042031;28;19928;-61
2022/02/19 06:42:05;;;;;;;;;;;;;;;2.74;68.08;97421.59;5014565;28;19932;-62
2022/02/19 06:44:49;;;;;;;;;;;;;;;2.80;68.07;97427.72;5034950;28;19921;-59
2022/02/19 06:47:15;;;;;;;;;;;;;;;2.56;68.41;97421.75;5031123;28;19971;-62
2022/02/19 06:49:41;;;;;;;;;;;;;;;2.53;68.72;97428.28;5032338;28;20119;-59
2022/02/19 06:52:08;;;;;;;;;;;;;;;2.54;68.47;97419.41;5032359;28;19975;-60
2022/02/19 06:54:34;;;;;;;;;;;;;;;2.66;68.17;97422.75;5024773;28;19920;-60
2022/02/19 06:57:00;;;;;;;;;;;;;;;2.67;68.00;97415.69;4998117;28;19928;-61
2022/02/19 06:59:26;;;;;;;;;;;;;;;2.55;68.09;97413.13;5031639;28;20015;-60
2022/02/19 07:01:52;;;;;;;;;;;;;;;2.63;68.46;97415.38;5032049;28;19975;-63
2022/02/19 07:04:19;;;;;;;;;;;;;;;2.74;67.83;97416.38;5049993;28;19978;-60
2022/02/19 07:07:08;;;;;;;;;;;;;;;2.89;67.46;97403.53;5028884;28;20340;-61
2022/02/19 07:09:33;;;;;;;;;;;;;;;3.01;66.72;97402.69;5010598;28;20008;-61
2022/02/19 07:11:59;;;;;;;;;;;;;;;3.03;67.00;97393.56;5012800;28;19925;-62
2022/02/19 07:14:28;;;;;;;;;;;;;;;3.05;67.01;97382.84;5026194;28;19924;-61
2022/02/19 07:16:54;;;;;;;;;;;;;;;3.05;66.67;97385.47;5010049;28;19971;-60
2022/02/19 07:19:20;;;;;;;;;;;;;;;3.20;66.24;97385.69;4985722;28;19956;-60
2022/02/19 07:21:46;;;;;;;;;;;;;;;3.31;65.90;97368.31;5000473;28;19963;-63
2022/02/19 07:24:12;;;;;;;;;;;;;;;3.43;65.76;97358.53;4992527;28;19968;-60
2022/02/19 07:26:39;;;;;;;;;;;;;;;3.61;64.78;97363.50;5009368;28;19975;-61
2022/02/19 07:29:07;;;;;;;;;;;;;;;3.66;64.29;97357.53;4994113;28;19929;-61
2022/02/19 07:31:43;;;;;;;;;;;;;;;3.57;64.63;97351.91;5001503;28;20893;-60
2022/02/19 07:34:08;;;;;;;;;;;;;;;3.47;65.12;97343.13;5010428;28;19967;-61
2022/02/19 07:36:36;;;;;;;;;;;;;;;3.57;64.70;97340.66;5012557;28;19925;-63
2022/02/19 07:39:03;;;;;;;;;;;;;;;3.74;63.85;97330.94;5018175;28;19921;-60
2022/02/19 07:41:33;;;;;;;;;;;;;;;3.69;64.04;97332.69;5010770;28;20302;-62
2022/02/19 07:44:16;;;;;;;;;;;;;;;3.62;64.08;97317.16;5044548;28;20402;-60
2022/02/19 07:47:26;;;;;;;;;;;;;;;3.77;63.58;97313.94;5026767;28;20390;-61
2022/02/19 07:59:27;;;;;;;;;;;;;;;3.92;62.70;97292.34;4947310;29;19930;-61
2022/02/19 08:01:53;;;;;;;;;;;;;;;3.91;63.49;97288.91;4949984;29;19926;-62
2022/02/19 08:04:19;;;;;;;;;;;;;;;3.97;63.09;97287.13;4934772;29;19922;-62
2022/02/19 08:06:46;;;;;;;;;;;;;;;4.08;62.93;97280.97;4934577;29;19926;-64
2022/02/19 08:09:13;;;;;;;;;;;;;;;4.18;62.65;97277.66;4933925;29;19922;-61
2022/02/19 08:11:39;;;;;;;;;;;;;;;4.21;61.75;97277.19;4950687;29;19980;-62
2022/02/19 08:14:06;;;;;;;;;;;;;;;4.24;61.39;97268.81;4950103;29;19922;-62
2022/02/19 08:16:31;;;;;;;;;;;;;;;4.16;61.95;97280.53;4934434;29;19926;-63
2022/02/19 08:18:58;;;;;;;;;;;;;;;4.12;62.46;97253.22;4936979;29;20290;-63
2022/02/19 08:21:24;;;;;;;;;;;;;;;4.15;62.23;97255.34;4948889;28;19961;-62
2022/02/19 08:23:49;;;;;;;;;;;;;;;4.35;62.34;97256.56;4993567;28;20016;-62
2022/02/19 08:26:18;;;;;;;;;;;;;;;4.43;62.07;97243.78;5014755;28;20403;-63
2022/02/19 08:28:45;;;;;;;;;;;;;;;4.67;61.29;97238.97;5014316;28;19925;-58
2022/02/19 08:31:10;;;;;;;;;;;;;;;4.58;60.25;97234.47;5006097;28;20283;-61
2022/02/19 08:33:36;;;;;;;;;;;;;;;4.62;61.11;97232.91;5009215;28;19925;-65
2022/02/19 08:36:01;;;;;;;;;;;;;;;4.75;61.19;97208.88;5015434;28;19943;-61
2022/02/19 08:38:27;;;;;;;;;;;;;;;4.58;60.94;97203.75;5014036;28;20044;-61
2022/02/19 08:40:52;;;;;;;;;;;;;;;4.67;60.16;97202.25;5013487;28;20432;-60
2022/02/19 08:43:21;;;;;;;;;;;;;;;4.74;60.51;97199.41;5009120;28;20457;-61
2022/02/19 08:45:49;;;;;;;;;;;;;;;4.83;60.09;97184.78;4946427;28;20040;-60
2022/02/19 08:48:14;;;;;;;;;;;;;;;4.87;59.41;97192.91;4995167;28;20012;-63
2022/02/19 08:50:40;;;;;;;;;;;;;;;4.94;59.88;97178.53;4995070;28;20032;-62
2022/02/19 08:53:06;;;;;;;;;;;;;;;5.07;59.63;97172.03;4995351;28;19926;-63
2022/02/19 08:55:31;;;;;;;;;;;;;;;5.09;59.42;97169.94;4995211;28;19926;-60
2022/02/19 08:57:57;;;;;;;;;;;;;;;5.12;59.27;97160.75;4995137;28;20351;-63
2022/02/19 09:00:23;;;;;;;;;;;;;;;4.83;59.60;97147.25;4995278;28;19928;-63
2022/02/19 09:02:48;;;;;;;;;;;;;;;4.89;60.18;97164.59;4996526;28;19921;-60
2022/02/19 09:05:15;;;;;;;;;;;;;;;4.93;59.49;97153.31;5034581;28;19920;-62
2022/02/19 09:07:40;;;;;;;;;;;;;;;5.05;59.41;97147.84;5032870;28;19929;-62
2022/02/19 09:10:07;;;;;;;;;;;;;;;5.15;58.40;97147.91;5034152;28;19921;-63
2022/02/19 09:12:32;;;;;;;;;;;;;;;5.17;58.97;97142.38;5033124;28;19931;-60
2022/02/19 09:14:58;;;;;;;;;;;;;;;4.95;58.79;97132.84;5032481;28;20011;-60
2022/02/19 09:17:24;;;;;;;;;;;;;;;4.94;59.31;97133.09;5034304;28;19925;-60
2022/02/19 09:19:50;;;;;;;;;;;;;;;4.85;59.36;97132.78;5033939;28;20352;-62
2022/02/19 09:22:15;;;;;;;;;;;;;;;4.94;59.48;97133.09;5016009;28;19925;-63
2022/02/19 09:24:41;;;;;;;;;;;;;;;4.76;59.74;97119.38;5033667;28;19928;-61
2022/02/19 09:27:06;;;;;;;;;;;;;;;4.66;59.29;97132.44;5033508;28;19964;-61
2022/02/19 09:29:32;;;;;;;;;;;;;;;4.54;60.50;97118.72;5032221;28;19921;-60
2022/02/19 09:31:58;;;;;;;;;;;;;;;4.52;60.34;97123.44;5033619;28;19970;-61
2022/02/19 09:34:26;;;;;;;;;;;;;;;4.55;60.57;97107.19;5033583;28;19921;-60
2022/02/19 09:36:52;;;;;;;;;;;;;;;4.43;59.84;97102.13;5031622;28;19924;-61
2022/02/19 09:39:18;;;;;;;;;;;;;;;4.48;60.46;97111.88;5033407;28;20414;-62
2022/02/19 09:41:44;;;;;;;;;;;;;;;4.56;60.04;97098.28;5016082;28;19931;-62
2022/02/19 09:44:10;;;;;;;;;;;;;;;4.57;59.89;97089.38;5033557;28;19922;-63
2022/02/19 09:46:36;;;;;;;;;;;;;;;4.63;59.27;97088.34;5033195;28;19931;-60
2022/02/19 09:49:05;;;;;;;;;;;;;;;4.60;59.79;97085.44;5033399;28;20004;-62
2022/02/19 09:51:30;;;;;;;;;;;;;;;4.64;60.43;97082.03;5031906;28;20015;-62
2022/02/19 09:53:56;;;;;;;;;;;;;;;4.72;60.04;97081.56;5033615;28;20020;-62
2022/02/19 09:56:24;;;;;;;;;;;;;;;4.73;60.45;97080.50;5033523;28;20369;-61
2022/02/19 09:58:50;;;;;;;;;;;;;;;4.60;61.70;97073.09;5033543;28;19924;-61
2022/02/19 10:01:19;;;;;;;;;;;;;;;4.66;62.22;97060.81;5033642;28;19968;-62
2022/02/19 10:03:45;;;;;;;;;;;;;;;4.45;61.94;97047.59;5033393;28;20318;-60
2022/02/19 10:06:11;;;;;;;;;;;;;;;4.26;62.83;97049.81;5033566;28;19928;-61
2022/02/19 10:08:37;;;;;;;;;;;;;;;4.21;64.73;97043.78;5033425;28;20016;-60
2022/02/19 10:11:03;;;;;;;;;;;;;;;4.30;63.83;97047.50;5033424;28;19964;-62
2022/02/19 10:13:53;;;;;;;;;;;;;;;4.26;64.89;97041.97;5033145;28;20456;-62
2022/02/19 10:16:25;;;;;;;;;;;;;;;4.37;64.83;97036.78;4974931;28;19972;-62
2022/02/19 10:18:51;;;;;;;;;;;;;;;4.33;65.71;97028.66;4959059;28;20391;-59
2022/02/19 10:21:20;;;;;;;;;;;;;;;4.35;65.63;97038.88;4990973;28;19929;-61
2022/02/19 10:23:50;;;;;;;;;;;;;;;4.50;66.22;97025.81;4991078;28;19941;-62
2022/02/19 10:26:17;;;;;;;;;;;;;;;4.57;65.59;97020.34;4991061;28;19921;-60
2022/02/19 10:29:00;;;;;;;;;;;;;;;4.29;66.29;97002.16;4974649;28;20399;-62
2022/02/19 10:31:26;;;;;;;;;;;;;;;4.14;67.51;97004.66;4990672;28;19925;-62
2022/02/19 10:34:07;;;;;;;;;;;;;;;4.03;67.92;96990.72;4974769;28;19929;-61
2022/02/19 10:36:45;;;;;;;;;;;;;;;4.01;69.01;96994.63;4990850;28;19932;-62
2022/02/19 10:39:10;;;;;;;;;;;;;;;3.86;69.13;96975.16;4990788;28;19926;-62
2022/02/19 10:41:37;;;;;;;;;;;;;;;3.83;69.45;96983.53;4990096;28;20318;-61
2022/02/19 10:44:19;;;;;;;;;;;;;;;3.49;70.73;96967.28;4974497;28;19969;-60
2022/02/19 10:46:44;;;;;;;;;;;;;;;3.58;72.43;96959.75;5001599;28;19925;-60
2022/02/19 10:49:11;;;;;;;;;;;;;;;3.64;70.89;96946.44;5032232;28;19924;-60
2022/02/19 10:51:36;;;;;;;;;;;;;;;3.73;72.54;96933.66;5032046;28;20395;-61
2022/02/19 10:54:05;;;;;;;;;;;;;;;3.76;72.81;96935.78;5032311;28;19967;-64
2022/02/19 10:56:30;;;;;;;;;;;;;;;3.75;72.34;96920.31;5032103;28;19983;-61
2022/02/19 10:58:59;;;;;;;;;;;;;;;3.54;72.12;96919.41;5030845;28;19925;-62
2022/02/19 11:01:25;;;;;;;;;;;;;;;3.55;74.70;96915.75;5014396;28;19932;-61
2022/02/19 11:03:51;;;;;;;;;;;;;;;3.64;76.57;96907.16;5032141;28;20294;-62
2022/02/19 11:06:17;;;;;;;;;;;;;;;3.59;75.84;96895.88;5032399;28;19928;-61
2022/02/19 11:08:43;;;;;;;;;;;;;;;3.38;74.62;96893.13;5031143;28;19925;-61
2022/02/19 11:11:09;;;;;;;;;;;;;;;3.24;75.06;96876.25;5030773;28;19923;-62
2022/02/19 11:13:36;;;;;;;;;;;;;;;3.15;75.39;96873.31;5032187;28;20020;-62
2022/02/19 11:16:04;;;;;;;;;;;;;;;3.09;75.00;96860.44;5030656;28;19921;-61
2022/02/19 11:18:34;;;;;;;;;;;;;;;2.89;75.02;96856.63;5030716;28;19968;-61
2022/02/19 11:21:03;;;;;;;;;;;;;;;2.80;75.92;96845.06;5032261;28;20335;-62
2022/02/19 11:23:29;;;;;;;;;;;;;;;2.82;76.79;96847.41;5031829;28;19925;-61
2022/02/19 11:25:55;;;;;;;;;;;;;;;2.85;78.45;96833.81;5032139;28;20271;-63
2022/02/19 11:28:20;;;;;;;;;;;;;;;2.85;76.63;96826.75;5030541;28;19975;-62
2022/02/19 11:30:50;;;;;;;;;;;;;;;2.91;77.98;96819.75;5030517;28;19928;-61
2022/02/19 11:33:17;;;;;;;;;;;;;;;2.87;77.08;96811.59;5031679;28;19924;-61
2022/02/19 11:35:42;;;;;;;;;;;;;;;2.77;76.53;96816.78;5014221;28;19920;-61
2022/02/19 11:38:26;;;;;;;;;;;;;;;2.46;77.15;96813.88;5031885;28;20460;-63
2022/02/19 11:40:53;;;;;;;;;;;;;;;2.41;78.73;96799.97;5030537;28;20023;-62
2022/02/19 11:43:45;;;;;;;;;;;;;;;2.42;78.73;96791.13;5030357;28;19971;-62
2022/02/19 11:46:14;;;;;;;;;;;;;;;2.41;77.90;96779.88;5030404;28;20306;-62
2022/02/19 11:48:43;;;;;;;;;;;;;;;2.42;78.99;96788.50;5031402;28;19924;-62
2022/02/19 11:51:10;;;;;;;;;;;;;;;2.33;78.25;96782.16;5031731;28;19983;-61
2022/02/19 11:53:35;;;;;;;;;;;;;;;2.50;79.42;96788.06;5033924;28;19925;-62
2022/02/19 11:56:01;;;;;;;;;;;;;;;2.58;80.05;96781.56;5017858;28;19920;-62
2022/02/19 11:58:27;;;;;;;;;;;;;;;2.54;78.97;96765.59;5035578;28;19925;-61
2022/02/19 12:00:56;;;;;;;;;;;;;;;2.57;79.63;96764.31;5035811;28;19921;-63
2022/02/19 12:03:22;;;;;;;;;;;;;;;2.62;80.96;96764.34;5034056;28;20023;-62
2022/02/19 12:06:06;;;;;;;;;;;;;;;2.62;79.37;96757.28;5035837;28;20020;-63
2022/02/19 12:08:52;;;;;;;;;;;;;;;2.52;78.84;96753.78;5017543;28;19924;-62
2022/02/19 12:11:19;;;;;;;;;;;;;;;2.41;78.44;96756.34;5035620;28;19974;-62
2022/02/19 12:13:44;;;;;;;;;;;;;;;2.49;80.00;96749.84;5034027;28;20390;-60
2022/02/19 12:16:31;;;;;;;;;;;;;;;2.62;79.66;96746.81;5035127;28;19931;-61
2022/02/19 12:19:02;;;;;;;;;;;;;;;2.76;78.66;96725.44;5034195;28;20012;-63
2022/02/19 12:21:41;;;;;;;;;;;;;;;2.70;77.72;96729.84;5017272;28;19931;-62
2022/02/19 12:24:16;;;;;;;;;;;;;;;2.69;77.76;96726.47;5017301;28;20313;-62
2022/02/19 12:26:54;;;;;;;;;;;;;;;2.59;77.40;96720.38;5034116;28;19931;-61
2022/02/19 12:29:21;;;;;;;;;;;;;;;2.57;77.19;96723.25;5035343;28;19932;-60
2022/02/19 12:32:06;;;;;;;;;;;;;;;2.50;78.21;96722.69;5035081;28;20310;-62
2022/02/19 12:34:33;;;;;;;;;;;;;;;2.47;77.05;96707.47;5034572;28;20389;-60
2022/02/19 12:36:59;;;;;;;;;;;;;;;2.43;78.98;96709.03;5034724;28;19932;-61
2022/02/19 12:39:25;;;;;;;;;;;;;;;2.38;77.60;96709.78;5034923;28;19921;-62
2022/02/19 12:41:54;;;;;;;;;;;;;;;2.44;78.93;96706.16;5033618;28;20034;-60
2022/02/19 12:44:20;;;;;;;;;;;;;;;2.49;77.22;96690.50;5034845;28;19932;-62
2022/02/19 12:46:47;;;;;;;;;;;;;;;2.65;77.85;96690.63;5034147;28;20023;-62
2022/02/19 12:49:15;;;;;;;;;;;;;;;2.60;77.75;96687.97;5034289;28;20313;-61
2022/02/19 12:51:41;;;;;;;;;;;;;;;2.65;77.57;96686.16;5034503;28;19929;-61
2022/02/19 12:54:06;;;;;;;;;;;;;;;2.47;76.47;96670.84;5034691;28;19927;-61
2022/02/19 12:56:41;;;;;;;;;;;;;;;2.49;78.39;96671.41;5034476;28;20401;-60
2022/02/19 12:59:07;;;;;;;;;;;;;;;2.60;78.29;96661.81;5034424;28;19921;-61
2022/02/19 13:01:33;;;;;;;;;;;;;;;2.61;78.10;96655.53;5034398;28;20019;-60
2022/02/19 13:03:58;;;;;;;;;;;;;;;2.64;79.21;96660.25;5032202;28;19921;-60
2022/02/19 13:06:25;;;;;;;;;;;;;;;2.53;78.09;96658.63;5034575;28;20382;-62
2022/02/19 13:08:57;;;;;;;;;;;;;;;2.41;77.96;96648.34;5034125;28;19983;-62
2022/02/19 13:11:23;;;;;;;;;;;;;;;2.42;77.64;96650.72;5032951;28;19920;-62
2022/02/19 13:13:48;;;;;;;;;;;;;;;2.50;78.24;96641.63;5049328;28;19925;-64
2022/02/19 13:16:14;;;;;;;;;;;;;;;2.40;77.26;96650.16;5045380;28;19947;-61